createdAt,value
2023-02-19T00:00:45.882Z,19.5
2023-02-19T00:21:16.932Z,19.4
2023-02-19T00:40:45.876Z,19.4
2023-02-19T01:00:52.584Z,19.3
2023-02-19T01:20:50.608Z,19.3
2023-02-19T01:40:46.128Z,19.2
2023-02-19T02:00:47.171Z,19.2
2023-02-19T02:20:45.889Z,19.2
2023-02-19T02:40:45.739Z,19.1
2023-02-19T03:00:45.844Z,19.1
2023-02-19T03:20:45.672Z,19.1
2023-02-19T03:40:45.775Z,19
2023-02-19T04:00:46.568Z,19
2023-02-19T04:20:45.520Z,19
2023-02-19T04:40:46.312Z,19
2023-02-19T05:01:05.525Z,18.9
2023-02-19T05:20:47.990Z,18.9
2023-02-19T05:40:45.594Z,18.9
2023-02-19T06:00:46.715Z,18.9
2023-02-19T06:20:45.574Z,18.9
2023-02-19T06:41:17.112Z,19
2023-02-19T07:01:13.676Z,19.1
2023-02-19T07:21:16.783Z,19.1
2023-02-19T07:41:11.575Z,19.1
2023-02-19T08:01:11.926Z,19.2
2023-02-19T08:21:17.321Z,19.3
2023-02-19T08:41:13.193Z,19.3
2023-02-19T09:01:10.108Z,19.4
2023-02-19T09:21:13.927Z,19.4
2023-02-19T09:41:11.711Z,19.4
2023-02-19T10:01:11.441Z,19.4
2023-02-19T10:21:13.123Z,19.5
2023-02-19T10:41:11.335Z,19.5
2023-02-19T11:01:13.155Z,19.6
2023-02-19T11:21:12.168Z,19.6
2023-02-19T11:41:11.386Z,19.7
2023-02-19T12:01:08.931Z,19.8
2023-02-19T12:21:14.271Z,20
2023-02-19T12:41:16.483Z,20.1
2023-02-19T13:01:11.991Z,20.1
2023-02-19T13:21:14.292Z,20.3
2023-02-19T13:41:13.723Z,20.3
2023-02-19T14:01:18.014Z,20.2
2023-02-19T14:21:11.284Z,20.2
2023-02-19T14:41:15.768Z,20.3
2023-02-19T15:01:15.572Z,20.4
2023-02-19T15:21:16.714Z,20.4
2023-02-19T15:41:16.991Z,20.4
2023-02-19T16:01:14.390Z,20.4
2023-02-19T16:21:12.047Z,20.3
2023-02-19T16:41:18.658Z,20.2
2023-02-19T17:01:12.502Z,20.2
2023-02-19T17:20:46.237Z,20.2
2023-02-19T17:40:46.484Z,20.2
2023-02-19T18:00:46.750Z,20.1
2023-02-19T18:20:46.289Z,20.1
2023-02-19T18:40:46.132Z,20
2023-02-19T19:00:46.383Z,20
2023-02-19T19:20:47.928Z,20
2023-02-19T19:40:50.261Z,20
2023-02-19T20:00:46.459Z,19.9
2023-02-19T20:20:46.575Z,19.9
2023-02-19T20:40:46.602Z,19.9
2023-02-19T21:00:46.234Z,19.9
2023-02-19T21:20:45.976Z,19.8
2023-02-19T21:40:46.316Z,19.8
2023-02-19T22:00:45.692Z,19.7
2023-02-19T22:20:45.505Z,19.6
2023-02-19T22:40:46.385Z,19.5
2023-02-19T23:00:50.791Z,19.5
2023-02-19T23:20:46.083Z,19.4
2023-02-19T23:40:47.110Z,19.4
